sensor_id;sensor_type;location;lat;lon;timestamp;P1;durP1;ratioP1;P2;durP2;ratioP2
25231;SDS011;13176;51.140;6.290;2023-05-10T00:00:39;991.55;;;911.35;;
25231;SDS011;13176;51.140;6.290;2023-05-10T00:03:06;982.72;;;901.78;;
25231;SDS011;13176;51.140;6.290;2023-05-10T00:05:32;975.75;;;897.40;;
25231;SDS011;13176;51.140;6.290;2023-05-10T00:07:58;956.72;;;879.15;;
25231;SDS011;13176;51.140;6.290;2023-05-10T00:10:25;974.22;;;893.88;;
25231;SDS011;13176;51.140;6.290;2023-05-10T00:12:51;967.15;;;886.65;;
25231;SDS011;13176;51.140;6.290;2023-05-10T00:15:18;976.85;;;896.63;;
25231;SDS011;13176;51.140;6.290;2023-05-10T00:17:44;972.83;;;893.55;;
25231;SDS011;13176;51.140;6.290;2023-05-10T00:20:11;974.78;;;893.08;;
25231;SDS011;13176;51.140;6.290;2023-05-10T00:22:37;971.80;;;891.75;;
25231;SDS011;13176;51.140;6.290;2023-05-10T00:25:04;948.33;;;871.22;;
25231;SDS011;13176;51.140;6.290;2023-05-10T00:27:32;972.70;;;892.60;;
25231;SDS011;13176;51.140;6.290;2023-05-10T00:29:58;984.55;;;902.35;;
25231;SDS011;13176;51.140;6.290;2023-05-10T00:32:24;1001.42;;;916.25;;
25231;SDS011;13176;51.140;6.290;2023-05-10T00:34:51;980.30;;;898.78;;
25231;SDS011;13176;51.140;6.290;2023-05-10T00:37:18;990.85;;;908.28;;
25231;SDS011;13176;51.140;6.290;2023-05-10T00:39:44;987.10;;;905.78;;
25231;SDS011;13176;51.140;6.290;2023-05-10T00:42:10;982.00;;;900.95;;
25231;SDS011;13176;51.140;6.290;2023-05-10T00:44:37;993.45;;;910.97;;
25231;SDS011;13176;51.140;6.290;2023-05-10T00:47:03;969.75;;;890.13;;
25231;SDS011;13176;51.140;6.290;2023-05-10T00:49:29;985.55;;;904.75;;
25231;SDS011;13176;51.140;6.290;2023-05-10T00:51:57;992.25;;;911.17;;
25231;SDS011;13176;51.140;6.290;2023-05-10T00:54:24;974.65;;;894.70;;
25231;SDS011;13176;51.140;6.290;2023-05-10T00:56:51;968.08;;;889.95;;
25231;SDS011;13176;51.140;6.290;2023-05-10T00:59:17;976.58;;;895.83;;
25231;SDS011;13176;51.140;6.290;2023-05-10T01:01:45;984.78;;;904.10;;
25231;SDS011;13176;51.140;6.290;2023-05-10T01:04:12;998.05;;;914.30;;
25231;SDS011;13176;51.140;6.290;2023-05-10T01:06:39;989.28;;;906.28;;
25231;SDS011;13176;51.140;6.290;2023-05-10T01:09:07;983.15;;;902.13;;
25231;SDS011;13176;51.140;6.290;2023-05-10T01:11:36;962.65;;;883.42;;
25231;SDS011;13176;51.140;6.290;2023-05-10T01:14:04;988.05;;;907.15;;
25231;SDS011;13176;51.140;6.290;2023-05-10T01:16:32;980.00;;;899.05;;
25231;SDS011;13176;51.140;6.290;2023-05-10T01:19:04;999.90;;;917.22;;
25231;SDS011;13176;51.140;6.290;2023-05-10T01:25:05;940.50;;;865.40;;
25231;SDS011;13176;51.140;6.290;2023-05-10T01:33:26;953.40;;;877.17;;
25231;SDS011;13176;51.140;6.290;2023-05-10T01:38:38;978.72;;;898.00;;
25231;SDS011;13176;51.140;6.290;2023-05-10T01:41:13;944.67;;;867.20;;
25231;SDS011;13176;51.140;6.290;2023-05-10T01:43:55;966.55;;;887.90;;
25231;SDS011;13176;51.140;6.290;2023-05-10T01:46:33;985.67;;;905.25;;
25231;SDS011;13176;51.140;6.290;2023-05-10T01:49:03;967.55;;;888.97;;
25231;SDS011;13176;51.140;6.290;2023-05-10T01:51:44;960.53;;;881.78;;
25231;SDS011;13176;51.140;6.290;2023-05-10T01:54:13;959.75;;;882.17;;
25231;SDS011;13176;51.140;6.290;2023-05-10T01:56:43;957.75;;;879.15;;
25231;SDS011;13176;51.140;6.290;2023-05-10T01:59:12;975.35;;;894.72;;
25231;SDS011;13176;51.140;6.290;2023-05-10T02:01:41;982.15;;;903.05;;
25231;SDS011;13176;51.140;6.290;2023-05-10T02:04:09;971.55;;;891.45;;
25231;SDS011;13176;51.140;6.290;2023-05-10T02:06:37;978.10;;;896.63;;
25231;SDS011;13176;51.140;6.290;2023-05-10T02:09:05;996.45;;;912.75;;
25231;SDS011;13176;51.140;6.290;2023-05-10T02:11:33;990.05;;;907.60;;
25231;SDS011;13176;51.140;6.290;2023-05-10T02:14:00;987.40;;;905.42;;
25231;SDS011;13176;51.140;6.290;2023-05-10T02:16:27;981.00;;;900.53;;
25231;SDS011;13176;51.140;6.290;2023-05-10T02:18:57;991.35;;;908.25;;
25231;SDS011;13176;51.140;6.290;2023-05-10T02:21:25;989.30;;;906.08;;
25231;SDS011;13176;51.140;6.290;2023-05-10T02:23:53;991.10;;;907.70;;
25231;SDS011;13176;51.140;6.290;2023-05-10T02:26:21;997.67;;;914.67;;
25231;SDS011;13176;51.140;6.290;2023-05-10T02:28:49;969.00;;;887.25;;
25231;SDS011;13176;51.140;6.290;2023-05-10T02:31:17;1009.03;;;924.75;;
25231;SDS011;13176;51.140;6.290;2023-05-10T02:33:45;986.90;;;906.10;;
25231;SDS011;13176;51.140;6.290;2023-05-10T02:36:14;974.47;;;894.83;;
25231;SDS011;13176;51.140;6.290;2023-05-10T02:38:42;991.55;;;910.30;;
25231;SDS011;13176;51.140;6.290;2023-05-10T02:41:10;965.28;;;885.97;;
25231;SDS011;13176;51.140;6.290;2023-05-10T02:43:38;984.45;;;903.20;;
25231;SDS011;13176;51.140;6.290;2023-05-10T02:46:06;957.03;;;877.97;;
25231;SDS011;13176;51.140;6.290;2023-05-10T02:48:33;990.08;;;907.10;;
25231;SDS011;13176;51.140;6.290;2023-05-10T02:51:00;984.88;;;903.90;;
25231;SDS011;13176;51.140;6.290;2023-05-10T02:53:32;967.40;;;888.08;;
25231;SDS011;13176;51.140;6.290;2023-05-10T02:56:04;970.20;;;891.47;;
25231;SDS011;13176;51.140;6.290;2023-05-10T02:58:37;968.03;;;888.38;;
25231;SDS011;13176;51.140;6.290;2023-05-10T03:01:03;991.50;;;910.03;;
25231;SDS011;13176;51.140;6.290;2023-05-10T03:03:30;984.20;;;902.65;;
25231;SDS011;13176;51.140;6.290;2023-05-10T03:05:56;986.85;;;905.10;;
25231;SDS011;13176;51.140;6.290;2023-05-10T03:08:24;965.08;;;884.35;;
25231;SDS011;13176;51.140;6.290;2023-05-10T03:11:14;980.78;;;899.38;;
25231;SDS011;13176;51.140;6.290;2023-05-10T03:13:46;947.85;;;871.20;;
25231;SDS011;13176;51.140;6.290;2023-05-10T03:16:24;957.70;;;879.38;;
25231;SDS011;13176;51.140;6.290;2023-05-10T03:19:03;981.40;;;900.72;;
25231;SDS011;13176;51.140;6.290;2023-05-10T03:21:36;981.55;;;900.08;;
25231;SDS011;13176;51.140;6.290;2023-05-10T03:24:07;990.88;;;908.63;;
25231;SDS011;13176;51.140;6.290;2023-05-10T03:26:38;981.30;;;900.13;;
25231;SDS011;13176;51.140;6.290;2023-05-10T03:29:06;991.42;;;908.38;;
25231;SDS011;13176;51.140;6.290;2023-05-10T03:31:34;992.55;;;909.53;;
25231;SDS011;13176;51.140;6.290;2023-05-10T03:34:00;982.33;;;900.88;;
25231;SDS011;13176;51.140;6.290;2023-05-10T03:36:27;965.90;;;886.40;;
25231;SDS011;13176;51.140;6.290;2023-05-10T03:38:53;976.13;;;894.45;;
25231;SDS011;13176;51.140;6.290;2023-05-10T03:41:20;974.10;;;894.17;;
25231;SDS011;13176;51.140;6.290;2023-05-10T03:43:47;983.70;;;903.45;;
25231;SDS011;13176;51.140;6.290;2023-05-10T03:46:13;968.95;;;890.65;;
25231;SDS011;13176;51.140;6.290;2023-05-10T03:48:40;960.85;;;882.90;;
25231;SDS011;13176;51.140;6.290;2023-05-10T03:51:06;956.15;;;879.42;;
25231;SDS011;13176;51.140;6.290;2023-05-10T03:53:33;969.13;;;890.83;;
25231;SDS011;13176;51.140;6.290;2023-05-10T03:55:59;959.55;;;882.40;;
25231;SDS011;13176;51.140;6.290;2023-05-10T03:58:26;940.75;;;864.78;;
25231;SDS011;13176;51.140;6.290;2023-05-10T04:00:52;928.60;;;853.53;;
25231;SDS011;13176;51.140;6.290;2023-05-10T04:03:18;933.42;;;857.22;;
25231;SDS011;13176;51.140;6.290;2023-05-10T04:05:46;934.17;;;859.78;;
25231;SDS011;13176;51.140;6.290;2023-05-10T04:08:12;937.47;;;863.10;;
25231;SDS011;13176;51.140;6.290;2023-05-10T04:10:40;920.08;;;847.97;;
25231;SDS011;13176;51.140;6.290;2023-05-10T04:13:07;923.33;;;849.67;;
25231;SDS011;13176;51.140;6.290;2023-05-10T04:15:33;914.20;;;841.28;;
25231;SDS011;13176;51.140;6.290;2023-05-10T04:18:00;906.80;;;835.42;;
25231;SDS011;13176;51.140;6.290;2023-05-10T04:20:26;932.08;;;858.53;;
25231;SDS011;13176;51.140;6.290;2023-05-10T04:22:52;909.78;;;837.58;;
25231;SDS011;13176;51.140;6.290;2023-05-10T04:25:19;903.83;;;832.90;;
25231;SDS011;13176;51.140;6.290;2023-05-10T04:27:46;877.40;;;809.15;;
25231;SDS011;13176;51.140;6.290;2023-05-10T04:30:12;897.25;;;828.63;;
25231;SDS011;13176;51.140;6.290;2023-05-10T04:32:39;898.85;;;828.40;;
25231;SDS011;13176;51.140;6.290;2023-05-10T04:35:05;894.10;;;825.58;;
25231;SDS011;13176;51.140;6.290;2023-05-10T04:37:32;898.88;;;827.95;;
25231;SDS011;13176;51.140;6.290;2023-05-10T04:39:58;892.55;;;823.45;;
25231;SDS011;13176;51.140;6.290;2023-05-10T04:42:26;895.10;;;825.13;;
25231;SDS011;13176;51.140;6.290;2023-05-10T04:44:52;903.00;;;831.92;;
25231;SDS011;13176;51.140;6.290;2023-05-10T04:47:19;888.90;;;820.10;;
25231;SDS011;13176;51.140;6.290;2023-05-10T04:49:48;900.08;;;830.92;;
25231;SDS011;13176;51.140;6.290;2023-05-10T04:52:14;886.75;;;816.83;;
25231;SDS011;13176;51.140;6.290;2023-05-10T04:54:43;871.63;;;803.65;;
25231;SDS011;13176;51.140;6.290;2023-05-10T04:57:10;883.85;;;815.78;;
25231;SDS011;13176;51.140;6.290;2023-05-10T04:59:36;895.15;;;825.90;;
25231;SDS011;13176;51.140;6.290;2023-05-10T05:02:03;866.25;;;798.88;;
25231;SDS011;13176;51.140;6.290;2023-05-10T05:04:34;892.17;;;822.22;;
25231;SDS011;13176;51.140;6.290;2023-05-10T05:07:00;880.67;;;811.92;;
25231;SDS011;13176;51.140;6.290;2023-05-10T05:09:27;905.75;;;834.25;;
25231;SDS011;13176;51.140;6.290;2023-05-10T05:11:53;871.92;;;803.45;;
25231;SDS011;13176;51.140;6.290;2023-05-10T05:14:19;874.08;;;805.17;;
25231;SDS011;13176;51.140;6.290;2023-05-10T05:16:47;877.35;;;810.50;;
25231;SDS011;13176;51.140;6.290;2023-05-10T05:19:13;880.92;;;813.50;;
25231;SDS011;13176;51.140;6.290;2023-05-10T05:21:39;867.25;;;800.10;;
25231;SDS011;13176;51.140;6.290;2023-05-10T05:24:06;871.33;;;803.15;;
25231;SDS011;13176;51.140;6.290;2023-05-10T05:26:33;871.40;;;802.88;;
25231;SDS011;13176;51.140;6.290;2023-05-10T05:28:59;886.47;;;816.88;;
25231;SDS011;13176;51.140;6.290;2023-05-10T05:31:26;910.20;;;839.63;;
25231;SDS011;13176;51.140;6.290;2023-05-10T05:33:52;878.22;;;810.53;;
25231;SDS011;13176;51.140;6.290;2023-05-10T05:36:18;895.83;;;826.92;;
25231;SDS011;13176;51.140;6.290;2023-05-10T05:38:45;889.42;;;820.33;;
25231;SDS011;13176;51.140;6.290;2023-05-10T05:41:11;886.22;;;816.53;;
25231;SDS011;13176;51.140;6.290;2023-05-10T05:43:38;898.05;;;827.55;;
25231;SDS011;13176;51.140;6.290;2023-05-10T05:46:04;910.15;;;839.22;;
25231;SDS011;13176;51.140;6.290;2023-05-10T05:48:31;901.90;;;830.20;;
25231;SDS011;13176;51.140;6.290;2023-05-10T05:50:57;913.42;;;841.38;;
25231;SDS011;13176;51.140;6.290;2023-05-10T05:53:24;915.80;;;843.97;;
25231;SDS011;13176;51.140;6.290;2023-05-10T05:55:51;912.30;;;838.15;;
25231;SDS011;13176;51.140;6.290;2023-05-10T05:58:19;910.42;;;838.58;;
25231;SDS011;13176;51.140;6.290;2023-05-10T06:00:46;921.65;;;848.08;;
25231;SDS011;13176;51.140;6.290;2023-05-10T06:03:12;913.92;;;839.80;;
25231;SDS011;13176;51.140;6.290;2023-05-10T06:05:39;908.38;;;836.88;;
25231;SDS011;13176;51.140;6.290;2023-05-10T06:08:05;904.55;;;832.40;;
25231;SDS011;13176;51.140;6.290;2023-05-10T06:10:32;903.08;;;831.95;;
25231;SDS011;13176;51.140;6.290;2023-05-10T06:12:58;904.92;;;832.08;;
25231;SDS011;13176;51.140;6.290;2023-05-10T06:15:25;911.50;;;838.70;;
25231;SDS011;13176;51.140;6.290;2023-05-10T06:17:52;918.72;;;844.85;;
25231;SDS011;13176;51.140;6.290;2023-05-10T06:20:18;943.13;;;867.30;;
25231;SDS011;13176;51.140;6.290;2023-05-10T06:22:45;948.47;;;870.60;;
25231;SDS011;13176;51.140;6.290;2023-05-10T06:25:11;948.55;;;871.35;;
25231;SDS011;13176;51.140;6.290;2023-05-10T06:27:37;944.45;;;866.65;;
25231;SDS011;13176;51.140;6.290;2023-05-10T06:30:04;928.22;;;853.15;;
25231;SDS011;13176;51.140;6.290;2023-05-10T06:32:38;945.72;;;869.53;;
25231;SDS011;13176;51.140;6.290;2023-05-10T06:35:05;923.08;;;848.70;;
25231;SDS011;13176;51.140;6.290;2023-05-10T06:37:32;928.55;;;854.17;;
25231;SDS011;13176;51.140;6.290;2023-05-10T06:39:58;915.55;;;841.53;;
25231;SDS011;13176;51.140;6.290;2023-05-10T06:42:25;891.20;;;820.15;;
25231;SDS011;13176;51.140;6.290;2023-05-10T06:44:51;914.60;;;842.15;;
25231;SDS011;13176;51.140;6.290;2023-05-10T06:47:18;922.42;;;848.75;;
25231;SDS011;13176;51.140;6.290;2023-05-10T06:49:44;919.92;;;845.63;;
25231;SDS011;13176;51.140;6.290;2023-05-10T06:52:11;928.22;;;853.10;;
25231;SDS011;13176;51.140;6.290;2023-05-10T06:54:37;932.45;;;858.15;;
25231;SDS011;13176;51.140;6.290;2023-05-10T06:57:06;930.15;;;853.13;;
25231;SDS011;13176;51.140;6.290;2023-05-10T06:59:48;915.50;;;842.25;;
25231;SDS011;13176;51.140;6.290;2023-05-10T07:02:15;928.00;;;853.53;;
25231;SDS011;13176;51.140;6.290;2023-05-10T07:04:41;923.67;;;848.55;;
25231;SDS011;13176;51.140;6.290;2023-05-10T07:07:08;925.72;;;849.85;;
25231;SDS011;13176;51.140;6.290;2023-05-10T07:09:34;927.33;;;851.90;;
25231;SDS011;13176;51.140;6.290;2023-05-10T07:12:01;933.75;;;858.13;;
25231;SDS011;13176;51.140;6.290;2023-05-10T07:14:28;950.35;;;872.35;;
25231;SDS011;13176;51.140;6.290;2023-05-10T07:16:54;954.92;;;876.00;;
25231;SDS011;13176;51.140;6.290;2023-05-10T07:19:21;957.78;;;876.70;;
25231;SDS011;13176;51.140;6.290;2023-05-10T07:21:47;958.45;;;879.15;;
25231;SDS011;13176;51.140;6.290;2023-05-10T07:24:14;958.65;;;878.88;;
25231;SDS011;13176;51.140;6.290;2023-05-10T07:26:40;970.58;;;889.00;;
25231;SDS011;13176;51.140;6.290;2023-05-10T07:29:06;946.67;;;869.13;;
25231;SDS011;13176;51.140;6.290;2023-05-10T07:31:33;928.42;;;853.88;;
25231;SDS011;13176;51.140;6.290;2023-05-10T07:33:59;882.70;;;814.22;;
25231;SDS011;13176;51.140;6.290;2023-05-10T07:36:26;822.65;;;761.35;;
25231;SDS011;13176;51.140;6.290;2023-05-10T07:38:52;793.60;;;734.50;;
25231;SDS011;13176;51.140;6.290;2023-05-10T07:41:18;802.20;;;742.42;;
25231;SDS011;13176;51.140;6.290;2023-05-10T07:43:45;660.30;;;616.72;;
25231;SDS011;13176;51.140;6.290;2023-05-10T07:46:11;577.28;;;539.70;;
25231;SDS011;13176;51.140;6.290;2023-05-10T07:48:40;404.05;;;380.05;;
25231;SDS011;13176;51.140;6.290;2023-05-10T07:51:06;316.05;;;297.20;;
25231;SDS011;13176;51.140;6.290;2023-05-10T07:53:35;432.27;;;406.00;;
25231;SDS011;13176;51.140;6.290;2023-05-10T07:58:55;349.05;;;327.98;;
25231;SDS011;13176;51.140;6.290;2023-05-10T08:01:22;243.00;;;228.52;;
25231;SDS011;13176;51.140;6.290;2023-05-10T08:03:49;241.05;;;226.80;;
25231;SDS011;13176;51.140;6.290;2023-05-10T08:06:17;251.65;;;236.88;;
25231;SDS011;13176;51.140;6.290;2023-05-10T08:08:48;272.77;;;256.75;;
25231;SDS011;13176;51.140;6.290;2023-05-10T08:11:18;209.00;;;196.63;;
25231;SDS011;13176;51.140;6.290;2023-05-10T08:13:46;257.92;;;242.55;;
25231;SDS011;13176;51.140;6.290;2023-05-10T08:16:14;333.25;;;313.05;;
25231;SDS011;13176;51.140;6.290;2023-05-10T08:18:40;365.73;;;343.67;;
25231;SDS011;13176;51.140;6.290;2023-05-10T08:21:07;412.40;;;386.48;;
25231;SDS011;13176;51.140;6.290;2023-05-10T08:23:33;488.08;;;456.85;;
25231;SDS011;13176;51.140;6.290;2023-05-10T08:26:00;536.47;;;500.25;;
25231;SDS011;13176;51.140;6.290;2023-05-10T08:28:26;500.75;;;469.40;;
25231;SDS011;13176;51.140;6.290;2023-05-10T08:30:53;452.08;;;423.88;;
25231;SDS011;13176;51.140;6.290;2023-05-10T08:33:19;295.25;;;278.38;;
25231;SDS011;13176;51.140;6.290;2023-05-10T08:35:46;203.43;;;191.18;;
25231;SDS011;13176;51.140;6.290;2023-05-10T08:38:12;212.82;;;199.85;;
25231;SDS011;13176;51.140;6.290;2023-05-10T08:40:40;290.60;;;272.98;;
25231;SDS011;13176;51.140;6.290;2023-05-10T08:43:08;279.98;;;263.42;;
25231;SDS011;13176;51.140;6.290;2023-05-10T08:45:37;164.02;;;154.18;;
25231;SDS011;13176;51.140;6.290;2023-05-10T08:48:09;125.10;;;117.18;;
25231;SDS011;13176;51.140;6.290;2023-05-10T08:50:36;124.57;;;116.88;;
25231;SDS011;13176;51.140;6.290;2023-05-10T08:53:06;137.93;;;129.32;;
25231;SDS011;13176;51.140;6.290;2023-05-10T08:55:36;125.65;;;117.70;;
25231;SDS011;13176;51.140;6.290;2023-05-10T08:58:05;111.15;;;103.60;;
25231;SDS011;13176;51.140;6.290;2023-05-10T09:00:35;146.82;;;137.35;;
25231;SDS011;13176;51.140;6.290;2023-05-10T09:03:03;200.45;;;188.05;;
25231;SDS011;13176;51.140;6.290;2023-05-10T09:05:31;216.23;;;202.60;;
25231;SDS011;13176;51.140;6.290;2023-05-10T09:07:58;283.60;;;265.27;;
25231;SDS011;13176;51.140;6.290;2023-05-10T09:10:26;282.38;;;263.95;;
25231;SDS011;13176;51.140;6.290;2023-05-10T09:12:55;253.35;;;237.75;;
25231;SDS011;13176;51.140;6.290;2023-05-10T09:15:24;264.52;;;248.57;;
25231;SDS011;13176;51.140;6.290;2023-05-10T09:17:51;295.08;;;277.35;;
25231;SDS011;13176;51.140;6.290;2023-05-10T09:20:18;317.25;;;298.08;;
25231;SDS011;13176;51.140;6.290;2023-05-10T09:22:45;292.73;;;275.15;;
25231;SDS011;13176;51.140;6.290;2023-05-10T09:25:12;269.70;;;253.90;;
25231;SDS011;13176;51.140;6.290;2023-05-10T09:27:41;221.15;;;207.43;;
25231;SDS011;13176;51.140;6.290;2023-05-10T09:30:23;216.23;;;202.80;;
25231;SDS011;13176;51.140;6.290;2023-05-10T09:32:51;150.77;;;141.35;;
25231;SDS011;13176;51.140;6.290;2023-05-10T09:35:18;160.40;;;150.52;;
25231;SDS011;13176;51.140;6.290;2023-05-10T09:37:51;133.10;;;124.68;;
25231;SDS011;13176;51.140;6.290;2023-05-10T09:40:21;147.52;;;138.27;;
25231;SDS011;13176;51.140;6.290;2023-05-10T09:42:52;107.22;;;100.35;;
25231;SDS011;13176;51.140;6.290;2023-05-10T09:45:28;93.50;;;87.15;;
25231;SDS011;13176;51.140;6.290;2023-05-10T09:47:56;98.45;;;92.03;;
25231;SDS011;13176;51.140;6.290;2023-05-10T09:50:23;136.27;;;127.78;;
25231;SDS011;13176;51.140;6.290;2023-05-10T09:52:50;109.88;;;102.85;;
25231;SDS011;13176;51.140;6.290;2023-05-10T09:55:21;96.47;;;89.82;;
25231;SDS011;13176;51.140;6.290;2023-05-10T09:58:00;104.18;;;97.57;;
25231;SDS011;13176;51.140;6.290;2023-05-10T10:00:28;99.95;;;93.45;;
25231;SDS011;13176;51.140;6.290;2023-05-10T10:03:00;120.38;;;112.63;;
25231;SDS011;13176;51.140;6.290;2023-05-10T10:05:34;109.97;;;102.97;;
25231;SDS011;13176;51.140;6.290;2023-05-10T10:08:03;106.13;;;99.35;;
25231;SDS011;13176;51.140;6.290;2023-05-10T10:10:31;111.75;;;104.53;;
25231;SDS011;13176;51.140;6.290;2023-05-10T10:12:58;102.25;;;95.57;;
25231;SDS011;13176;51.140;6.290;2023-05-10T10:15:28;83.47;;;78.20;;
25231;SDS011;13176;51.140;6.290;2023-05-10T10:17:55;87.38;;;81.88;;
25231;SDS011;13176;51.140;6.290;2023-05-10T10:20:22;89.85;;;84.15;;
25231;SDS011;13176;51.140;6.290;2023-05-10T10:22:48;102.25;;;95.70;;
25231;SDS011;13176;51.140;6.290;2023-05-10T10:25:15;110.95;;;104.20;;
25231;SDS011;13176;51.140;6.290;2023-05-10T10:35:53;106.07;;;99.47;;
25231;SDS011;13176;51.140;6.290;2023-05-10T10:38:21;105.38;;;98.90;;
25231;SDS011;13176;51.140;6.290;2023-05-10T10:40:48;85.80;;;80.45;;
25231;SDS011;13176;51.140;6.290;2023-05-10T10:43:28;93.40;;;87.35;;
25231;SDS011;13176;51.140;6.290;2023-05-10T10:46:14;92.30;;;86.25;;
25231;SDS011;13176;51.140;6.290;2023-05-10T10:48:50;87.07;;;81.38;;
25231;SDS011;13176;51.140;6.290;2023-05-10T10:51:40;94.20;;;88.43;;
25231;SDS011;13176;51.140;6.290;2023-05-10T10:57:48;118.40;;;110.93;;
25231;SDS011;13176;51.140;6.290;2023-05-10T11:02:45;90.70;;;84.93;;
25231;SDS011;13176;51.140;6.290;2023-05-10T11:07:53;95.97;;;89.80;;
25231;SDS011;13176;51.140;6.290;2023-05-10T11:10:21;93.38;;;87.35;;
25231;SDS011;13176;51.140;6.290;2023-05-10T11:12:52;93.22;;;87.43;;
25231;SDS011;13176;51.140;6.290;2023-05-10T11:15:19;97.50;;;91.47;;
25231;SDS011;13176;51.140;6.290;2023-05-10T11:17:47;93.25;;;87.45;;
25231;SDS011;13176;51.140;6.290;2023-05-10T11:20:18;91.32;;;85.53;;
25231;SDS011;13176;51.140;6.290;2023-05-10T11:22:49;89.13;;;83.65;;
25231;SDS011;13176;51.140;6.290;2023-05-10T11:25:19;95.53;;;89.68;;
25231;SDS011;13176;51.140;6.290;2023-05-10T11:27:47;94.57;;;88.82;;
25231;SDS011;13176;51.140;6.290;2023-05-10T11:30:14;92.90;;;87.30;;
25231;SDS011;13176;51.140;6.290;2023-05-10T11:32:41;99.20;;;93.18;;
25231;SDS011;13176;51.140;6.290;2023-05-10T11:35:08;100.50;;;94.10;;
25231;SDS011;13176;51.140;6.290;2023-05-10T11:37:36;125.88;;;118.00;;
25231;SDS011;13176;51.140;6.290;2023-05-10T11:40:07;131.13;;;123.18;;
25231;SDS011;13176;51.140;6.290;2023-05-10T11:42:39;129.07;;;120.85;;
25231;SDS011;13176;51.140;6.290;2023-05-10T11:45:05;120.82;;;113.32;;
25231;SDS011;13176;51.140;6.290;2023-05-10T11:47:32;124.05;;;116.25;;
25231;SDS011;13176;51.140;6.290;2023-05-10T11:49:59;121.35;;;113.85;;
25231;SDS011;13176;51.140;6.290;2023-05-10T11:52:26;135.13;;;126.93;;
25231;SDS011;13176;51.140;6.290;2023-05-10T11:54:53;135.55;;;127.55;;
25231;SDS011;13176;51.140;6.290;2023-05-10T11:57:20;116.93;;;109.88;;
25231;SDS011;13176;51.140;6.290;2023-05-10T11:59:47;99.93;;;93.70;;
25231;SDS011;13176;51.140;6.290;2023-05-10T12:02:13;97.85;;;91.90;;
25231;SDS011;13176;51.140;6.290;2023-05-10T12:04:40;89.97;;;84.55;;
25231;SDS011;13176;51.140;6.290;2023-05-10T12:07:07;95.13;;;89.13;;
25231;SDS011;13176;51.140;6.290;2023-05-10T12:09:34;110.32;;;103.57;;
25231;SDS011;13176;51.140;6.290;2023-05-10T12:12:09;89.93;;;84.45;;
25231;SDS011;13176;51.140;6.290;2023-05-10T12:14:36;68.30;;;64.03;;
25231;SDS011;13176;51.140;6.290;2023-05-10T12:17:02;71.03;;;65.78;;
25231;SDS011;13176;51.140;6.290;2023-05-10T12:19:36;63.15;;;59.08;;
25231;SDS011;13176;51.140;6.290;2023-05-10T12:22:06;45.42;;;42.40;;
25231;SDS011;13176;51.140;6.290;2023-05-10T12:24:34;53.58;;;49.58;;
25231;SDS011;13176;51.140;6.290;2023-05-10T12:27:04;55.63;;;51.70;;
25231;SDS011;13176;51.140;6.290;2023-05-10T12:29:33;59.30;;;55.67;;
25231;SDS011;13176;51.140;6.290;2023-05-10T12:31:59;53.95;;;50.70;;
25231;SDS011;13176;51.140;6.290;2023-05-10T12:34:26;53.42;;;50.05;;
25231;SDS011;13176;51.140;6.290;2023-05-10T12:36:57;56.35;;;52.88;;
25231;SDS011;13176;51.140;6.290;2023-05-10T12:39:24;55.65;;;52.25;;
25231;SDS011;13176;51.140;6.290;2023-05-10T12:41:51;57.00;;;53.60;;
25231;SDS011;13176;51.140;6.290;2023-05-10T12:44:21;49.63;;;46.63;;
25231;SDS011;13176;51.140;6.290;2023-05-10T12:46:50;48.22;;;45.33;;
25231;SDS011;13176;51.140;6.290;2023-05-10T12:49:16;56.95;;;53.53;;
25231;SDS011;13176;51.140;6.290;2023-05-10T12:51:45;54.38;;;51.10;;
25231;SDS011;13176;51.140;6.290;2023-05-10T12:54:11;50.53;;;47.20;;
25231;SDS011;13176;51.140;6.290;2023-05-10T12:56:37;37.22;;;34.53;;
25231;SDS011;13176;51.140;6.290;2023-05-10T12:59:04;36.95;;;34.25;;
25231;SDS011;13176;51.140;6.290;2023-05-10T13:01:33;34.60;;;31.95;;
25231;SDS011;13176;51.140;6.290;2023-05-10T13:03:59;36.83;;;34.47;;
25231;SDS011;13176;51.140;6.290;2023-05-10T13:06:26;36.13;;;33.90;;
25231;SDS011;13176;51.140;6.290;2023-05-10T13:08:52;30.05;;;28.25;;
25231;SDS011;13176;51.140;6.290;2023-05-10T13:11:19;22.67;;;21.25;;
25231;SDS011;13176;51.140;6.290;2023-05-10T13:13:46;22.50;;;21.13;;
25231;SDS011;13176;51.140;6.290;2023-05-10T13:16:12;26.55;;;24.92;;
25231;SDS011;13176;51.140;6.290;2023-05-10T13:18:39;25.13;;;23.60;;
25231;SDS011;13176;51.140;6.290;2023-05-10T13:21:08;31.02;;;29.23;;
25231;SDS011;13176;51.140;6.290;2023-05-10T13:23:34;27.63;;;25.80;;
25231;SDS011;13176;51.140;6.290;2023-05-10T13:26:01;22.58;;;21.05;;
25231;SDS011;13176;51.140;6.290;2023-05-10T13:28:27;20.17;;;18.88;;
25231;SDS011;13176;51.140;6.290;2023-05-10T13:30:54;20.95;;;19.58;;
25231;SDS011;13176;51.140;6.290;2023-05-10T13:33:20;21.42;;;19.90;;
25231;SDS011;13176;51.140;6.290;2023-05-10T13:35:46;27.58;;;25.73;;
25231;SDS011;13176;51.140;6.290;2023-05-10T13:38:13;22.95;;;21.50;;
25231;SDS011;13176;51.140;6.290;2023-05-10T13:40:39;28.63;;;26.88;;
25231;SDS011;13176;51.140;6.290;2023-05-10T13:43:12;21.05;;;19.50;;
25231;SDS011;13176;51.140;6.290;2023-05-10T13:45:38;25.17;;;23.55;;
25231;SDS011;13176;51.140;6.290;2023-05-10T13:48:05;28.85;;;26.90;;
25231;SDS011;13176;51.140;6.290;2023-05-10T13:50:31;27.23;;;25.40;;
25231;SDS011;13176;51.140;6.290;2023-05-10T13:52:58;26.70;;;24.92;;
25231;SDS011;13176;51.140;6.290;2023-05-10T13:55:24;21.08;;;19.73;;
25231;SDS011;13176;51.140;6.290;2023-05-10T13:57:51;21.33;;;19.92;;
25231;SDS011;13176;51.140;6.290;2023-05-10T14:00:17;27.77;;;25.92;;
25231;SDS011;13176;51.140;6.290;2023-05-10T14:02:44;21.17;;;19.27;;
25231;SDS011;13176;51.140;6.290;2023-05-10T14:05:11;21.45;;;19.95;;
25231;SDS011;13176;51.140;6.290;2023-05-10T14:07:38;20.00;;;18.65;;
25231;SDS011;13176;51.140;6.290;2023-05-10T14:10:04;18.75;;;17.42;;
25231;SDS011;13176;51.140;6.290;2023-05-10T14:12:31;18.13;;;16.80;;
25231;SDS011;13176;51.140;6.290;2023-05-10T14:14:58;18.13;;;16.92;;
25231;SDS011;13176;51.140;6.290;2023-05-10T14:17:24;17.85;;;16.55;;
25231;SDS011;13176;51.140;6.290;2023-05-10T14:19:51;15.82;;;14.73;;
25231;SDS011;13176;51.140;6.290;2023-05-10T14:22:19;15.88;;;14.68;;
25231;SDS011;13176;51.140;6.290;2023-05-10T14:24:45;14.13;;;13.13;;
25231;SDS011;13176;51.140;6.290;2023-05-10T14:27:13;13.57;;;12.65;;
25231;SDS011;13176;51.140;6.290;2023-05-10T14:29:39;14.27;;;13.27;;
25231;SDS011;13176;51.140;6.290;2023-05-10T14:32:05;13.70;;;12.52;;
25231;SDS011;13176;51.140;6.290;2023-05-10T14:34:32;17.92;;;16.20;;
25231;SDS011;13176;51.140;6.290;2023-05-10T14:36:59;18.70;;;17.40;;
25231;SDS011;13176;51.140;6.290;2023-05-10T14:39:25;17.83;;;16.63;;